Time;durP1;ratioP1;P1;durP2;ratioP2;P2;SDS_P1;SDS_P2;PMS_P1;PMS_P2;Temp;Humidity;BMP_temperature;BMP_pressure;BME280_temperature;BME280_humidity;BME280_pressure;Samples;Min_cycle;Max_cycle;Signal;HPM_P1;HPM_P2
2023/01/30 00:04:11;;;;;;;;;;;;;;;18.89;27.36;96153.59;10426647;28;1978;-51
2023/01/30 00:09:12;;;;;;;;;;;;;;;18.84;27.30;96146.47;10425714;28;1941;-50
2023/01/30 00:14:12;;;;;;;;;;;;;;;18.82;27.36;96143.31;10416636;28;2035;-51
2023/01/30 00:19:13;;;;;;;;;;;;;;;18.77;27.30;96126.72;10418026;28;2028;-55
2023/01/30 00:24:13;;;;;;;;;;;;;;;18.74;27.21;96125.41;10415569;28;1968;-52
2023/01/30 00:29:13;;;;;;;;;;;;;;;18.71;27.19;96123.28;10419526;28;1914;-53
2023/01/30 00:34:14;;;;;;;;;;;;;;;18.66;27.02;96116.16;10415625;28;2139;-51
2023/01/30 00:39:14;;;;;;;;;;;;;;;18.65;27.22;96105.88;10415156;28;2166;-52
2023/01/30 00:49:33;;;;;;;;;;;;;;;18.57;27.16;96093.22;10418172;28;2028;-49
2023/01/30 00:54:34;;;;;;;;;;;;;;;18.55;26.99;96090.06;10419704;28;2052;-53
2023/01/30 00:59:34;;;;;;;;;;;;;;;18.50;27.15;96077.72;10421457;28;2026;-54
2023/01/30 01:04:42;;;;;;;;;;;;;;;18.46;27.14;96070.59;10413420;28;2085;-52
2023/01/30 01:09:42;;;;;;;;;;;;;;;18.45;27.01;96058.50;10421994;28;2005;-52
2023/01/30 01:14:42;;;;;;;;;;;;;;;18.39;27.18;96054.25;10415381;28;1994;-53
2023/01/30 01:19:42;;;;;;;;;;;;;;;18.37;27.10;96061.56;10420567;28;1989;-54
2023/01/30 01:24:43;;;;;;;;;;;;;;;18.33;27.11;96056.03;10418580;28;2027;-54
2023/01/30 01:29:43;;;;;;;;;;;;;;;18.32;27.08;96061.56;10420104;28;2076;-54
2023/01/30 01:34:43;;;;;;;;;;;;;;;18.28;27.15;96063.09;10412712;28;2210;-53
2023/01/30 01:45:10;;;;;;;;;;;;;;;18.22;27.03;96059.63;10414586;28;1949;-48
2023/01/30 01:50:27;;;;;;;;;;;;;;;18.19;27.06;96043.59;10395879;28;2170;-52
2023/01/30 01:55:27;;;;;;;;;;;;;;;18.15;27.12;96024.16;10406482;28;2057;-54
2023/01/30 02:00:27;;;;;;;;;;;;;;;18.14;27.01;96035.69;10420764;28;2100;-55
2023/01/30 02:05:29;;;;;;;;;;;;;;;18.11;27.02;96044.06;10420940;28;1969;-54
2023/01/30 02:10:49;;;;;;;;;;;;;;;18.08;26.92;96040.09;10403925;28;2235;-50
2023/01/30 02:15:50;;;;;;;;;;;;;;;18.06;26.86;96044.00;10421164;28;1977;-49
2023/01/30 02:20:55;;;;;;;;;;;;;;;18.01;26.93;96044.75;10412817;28;2002;-50
2023/01/30 02:26:02;;;;;;;;;;;;;;;17.99;26.95;96053.94;10422277;28;1990;-51
2023/01/30 02:31:08;;;;;;;;;;;;;;;17.98;26.84;96050.50;10412840;28;1895;-53
2023/01/30 02:36:12;;;;;;;;;;;;;;;17.95;26.89;96042.34;10428390;28;2075;-51
2023/01/30 02:41:21;;;;;;;;;;;;;;;17.92;26.82;96048.09;10436526;28;2037;-49
2023/01/30 02:46:23;;;;;;;;;;;;;;;17.91;26.79;96054.38;10403028;28;2245;-52
2023/01/30 02:51:34;;;;;;;;;;;;;;;17.87;26.71;96054.88;10410378;28;2090;-53
2023/01/30 02:56:48;;;;;;;;;;;;;;;17.84;26.80;96044.91;10424148;28;2118;-52
2023/01/30 03:01:48;;;;;;;;;;;;;;;17.84;26.74;96063.25;10424506;28;2167;-49
2023/01/30 03:06:56;;;;;;;;;;;;;;;17.81;26.74;96058.50;10428650;28;1954;-50
2023/01/30 03:12:01;;;;;;;;;;;;;;;17.79;26.62;96078.94;10420569;28;1959;-50
2023/01/30 03:17:01;;;;;;;;;;;;;;;17.77;26.66;96062.66;10400606;28;1978;-52
2023/01/30 03:22:01;;;;;;;;;;;;;;;17.74;26.49;96047.41;10424541;28;2023;-53
2023/01/30 03:27:06;;;;;;;;;;;;;;;17.74;26.41;96020.41;10401220;28;2046;-52
2023/01/30 03:32:07;;;;;;;;;;;;;;;17.69;26.55;96023.78;10387497;28;2003;-52
2023/01/30 03:37:07;;;;;;;;;;;;;;;17.70;26.54;96030.59;10419772;28;2073;-51
2023/01/30 03:42:08;;;;;;;;;;;;;;;17.67;26.58;96012.75;10421336;28;2129;-51
2023/01/30 03:47:08;;;;;;;;;;;;;;;17.67;26.47;96010.13;10417420;28;2050;-48
2023/01/30 03:52:08;;;;;;;;;;;;;;;17.63;26.54;96008.25;10422780;28;2093;-54
2023/01/30 03:57:09;;;;;;;;;;;;;;;17.64;26.49;96005.34;10428112;28;2066;-53
2023/01/30 04:02:09;;;;;;;;;;;;;;;17.66;26.43;96013.00;10429825;28;2094;-50
2023/01/30 04:07:09;;;;;;;;;;;;;;;17.64;26.43;96002.75;10422174;28;1970;-50
2023/01/30 04:12:10;;;;;;;;;;;;;;;17.66;26.40;96008.53;10419048;28;2034;-52
2023/01/30 04:17:10;;;;;;;;;;;;;;;17.66;26.27;96031.34;10417976;28;1962;-51
2023/01/30 04:22:10;;;;;;;;;;;;;;;17.66;26.31;96024.25;10416147;28;1960;-54
2023/01/30 04:27:10;;;;;;;;;;;;;;;17.67;26.35;96025.84;10420204;28;2050;-55
2023/01/30 04:32:11;;;;;;;;;;;;;;;17.66;26.29;96013.75;10424969;28;1979;-50
2023/01/30 04:37:11;;;;;;;;;;;;;;;17.66;26.20;96020.88;10415480;28;1997;-52
2023/01/30 04:42:11;;;;;;;;;;;;;;;17.67;26.18;96019.81;10396594;28;2104;-50
2023/01/30 04:47:12;;;;;;;;;;;;;;;17.67;26.19;95983.09;10419147;28;2050;-48
2023/01/30 04:52:12;;;;;;;;;;;;;;;17.66;26.20;95969.19;10429993;28;1934;-53
2023/01/30 04:57:12;;;;;;;;;;;;;;;17.68;26.15;95974.22;10423034;28;1974;-52
2023/01/30 05:02:12;;;;;;;;;;;;;;;17.67;26.12;95977.88;10421448;28;2042;-52
2023/01/30 05:07:13;;;;;;;;;;;;;;;17.66;26.04;95976.31;10421204;28;1981;-52
2023/01/30 05:12:13;;;;;;;;;;;;;;;17.65;26.04;95965.00;10415130;28;1976;-53
2023/01/30 05:17:13;;;;;;;;;;;;;;;17.68;26.08;95938.28;10421291;28;2013;-49
2023/01/30 05:22:13;;;;;;;;;;;;;;;17.72;25.94;95939.38;10431633;28;1943;-53
2023/01/30 05:27:14;;;;;;;;;;;;;;;17.77;25.86;95952.53;10415698;28;1959;-48
2023/01/30 05:32:14;;;;;;;;;;;;;;;17.84;25.87;95947.06;10420099;28;1966;-53
2023/01/30 05:37:14;;;;;;;;;;;;;;;17.93;25.82;95950.03;10395088;28;2322;-51
2023/01/30 05:42:15;;;;;;;;;;;;;;;17.98;25.73;95955.28;10426538;28;1939;-52
2023/01/30 05:47:15;;;;;;;;;;;;;;;18.04;25.77;95947.22;10427354;28;1902;-54
2023/01/30 05:52:15;;;;;;;;;;;;;;;18.11;25.59;95944.38;10425403;28;1946;-50
2023/01/30 05:57:15;;;;;;;;;;;;;;;18.14;25.57;95921.03;10422912;28;1965;-53
2023/01/30 06:02:16;;;;;;;;;;;;;;;18.19;25.64;95931.56;10421264;28;1916;-53
2023/01/30 06:07:16;;;;;;;;;;;;;;;18.25;25.63;95937.63;10413002;28;2210;-52
2023/01/30 06:12:16;;;;;;;;;;;;;;;18.28;25.62;95932.66;10417353;28;2077;-51
2023/01/30 06:17:17;;;;;;;;;;;;;;;18.31;25.47;95934.78;10418743;28;2020;-51
2023/01/30 06:22:17;;;;;;;;;;;;;;;18.37;25.60;95920.66;10419823;28;2020;-50
2023/01/30 06:27:18;;;;;;;;;;;;;;;18.42;26.00;95927.75;10417892;28;2043;-55
2023/01/30 06:32:18;;;;;;;;;;;;;;;18.47;26.05;95936.47;10424457;28;1958;-54
2023/01/30 06:37:18;;;;;;;;;;;;;;;18.51;26.07;95942.00;10411871;28;1954;-51
2023/01/30 06:42:19;;;;;;;;;;;;;;;18.55;26.25;95935.19;10428743;28;2012;-56
2023/01/30 06:47:19;;;;;;;;;;;;;;;18.57;26.43;95941.75;10416479;28;2013;-49
2023/01/30 06:52:19;;;;;;;;;;;;;;;18.60;26.66;95940.47;10430615;28;2236;-55
2023/01/30 06:57:19;;;;;;;;;;;;;;;18.69;27.01;95942.34;10412579;28;1963;-53
2023/01/30 07:02:20;;;;;;;;;;;;;;;18.74;27.16;95951.28;10412869;28;2064;-51
2023/01/30 07:07:20;;;;;;;;;;;;;;;18.77;27.59;95954.22;10417208;28;2090;-51
2023/01/30 07:12:20;;;;;;;;;;;;;;;18.80;27.31;95943.16;10420966;28;1958;-51
2023/01/30 07:17:21;;;;;;;;;;;;;;;18.83;27.36;95947.94;10423100;28;2072;-55
2023/01/30 07:22:21;;;;;;;;;;;;;;;18.88;27.37;95968.94;10421268;28;2079;-54
2023/01/30 07:27:21;;;;;;;;;;;;;;;18.89;27.22;95946.91;10421995;28;1979;-52
2023/01/30 07:32:21;;;;;;;;;;;;;;;18.89;27.26;95944.25;10422399;28;2018;-53
2023/01/30 07:37:22;;;;;;;;;;;;;;;18.90;26.91;95942.44;10423711;28;1970;-51
2023/01/30 07:42:22;;;;;;;;;;;;;;;18.88;27.08;95945.31;10405608;28;2007;-51
2023/01/30 07:47:22;;;;;;;;;;;;;;;18.91;26.91;95936.13;10429422;28;2022;-52
2023/01/30 07:52:23;;;;;;;;;;;;;;;18.91;27.11;95921.16;10432459;28;2029;-52
2023/01/30 07:57:23;;;;;;;;;;;;;;;18.93;26.76;95892.78;10425843;28;2058;-52
2023/01/30 08:02:23;;;;;;;;;;;;;;;18.93;26.94;95886.75;10427973;28;1939;-54
2023/01/30 08:07:23;;;;;;;;;;;;;;;18.96;26.74;95886.25;10429910;28;2002;-54
2023/01/30 08:12:24;;;;;;;;;;;;;;;18.95;26.69;95885.44;10422131;28;2057;-50
2023/01/30 08:17:24;;;;;;;;;;;;;;;18.94;26.82;95891.72;10419756;28;2026;-52
2023/01/30 08:22:24;;;;;;;;;;;;;;;18.93;26.82;95889.38;10421570;28;2056;-55
2023/01/30 08:27:24;;;;;;;;;;;;;;;18.92;27.26;95878.06;10430149;28;1965;-52
2023/01/30 08:32:25;;;;;;;;;;;;;;;18.89;26.93;95878.59;10424929;28;1974;-55
2023/01/30 08:37:25;;;;;;;;;;;;;;;18.87;27.14;95867.56;10424873;28;2041;-52
2023/01/30 08:42:25;;;;;;;;;;;;;;;18.84;27.20;95864.66;10417662;28;1971;-53
2023/01/30 08:47:25;;;;;;;;;;;;;;;18.80;27.57;95864.38;10414343;28;2045;-52
2023/01/30 08:52:26;;;;;;;;;;;;;;;18.77;27.83;95861.50;10416722;28;2041;-52
2023/01/30 08:57:26;;;;;;;;;;;;;;;18.74;27.67;95862.78;10414406;28;2117;-52
2023/01/30 09:02:26;;;;;;;;;;;;;;;18.69;27.94;95857.53;10423595;28;2180;-53
2023/01/30 09:07:27;;;;;;;;;;;;;;;18.63;28.16;95845.44;10423465;28;2139;-52
2023/01/30 09:12:27;;;;;;;;;;;;;;;18.62;28.05;95851.75;10421151;28;2038;-52
2023/01/30 09:17:28;;;;;;;;;;;;;;;18.59;28.04;95833.88;10433248;28;2036;-52
2023/01/30 09:22:28;;;;;;;;;;;;;;;18.53;28.15;95850.66;10433695;28;2338;-51
2023/01/30 09:27:28;;;;;;;;;;;;;;;18.51;28.27;95840.41;10431023;28;1985;-52
2023/01/30 09:32:29;;;;;;;;;;;;;;;18.46;28.43;95858.00;10432589;28;1975;-54
2023/01/30 09:37:29;;;;;;;;;;;;;;;18.42;28.64;95857.66;10431715;28;1938;-51
2023/01/30 09:42:33;;;;;;;;;;;;;;;18.45;28.28;95843.28;10425462;28;1993;-53
2023/01/30 09:47:39;;;;;;;;;;;;;;;18.38;28.69;95840.09;10406721;28;1990;-51
2023/01/30 09:52:43;;;;;;;;;;;;;;;18.35;28.70;95824.84;10410675;28;2042;-53
2023/01/30 09:57:43;;;;;;;;;;;;;;;18.32;28.79;95825.38;10420114;28;2038;-48
2023/01/30 10:02:57;;;;;;;;;;;;;;;18.28;28.77;95811.19;10427144;28;2003;-52
2023/01/30 10:08:10;;;;;;;;;;;;;;;18.25;28.74;95811.69;10432802;28;2083;-55
2023/01/30 10:13:13;;;;;;;;;;;;;;;18.28;28.69;95845.31;10426378;28;2015;-52
2023/01/30 10:18:19;;;;;;;;;;;;;;;18.24;28.53;95802.22;10415496;28;1987;-54
2023/01/30 10:23:23;;;;;;;;;;;;;;;18.20;28.87;95790.66;10411804;28;1927;-54
2023/01/30 10:28:30;;;;;;;;;;;;;;;18.19;28.64;95781.22;10432648;28;2004;-50
2023/01/30 10:33:35;;;;;;;;;;;;;;;18.15;28.81;95761.81;10424305;28;2051;-55
2023/01/30 10:38:41;;;;;;;;;;;;;;;18.11;28.97;95750.25;10424947;28;2057;-55
2023/01/30 10:43:43;;;;;;;;;;;;;;;18.08;29.12;95754.16;10416517;28;2336;-54
2023/01/30 10:49:01;;;;;;;;;;;;;;;18.03;29.34;95767.28;10405691;28;2098;-54
2023/01/30 10:54:30;;;;;;;;;;;;;;;18.02;29.21;95759.66;10427245;28;1947;-54
2023/01/30 10:59:33;;;;;;;;;;;;;;;17.99;29.14;95760.19;10410196;28;1993;-54
2023/01/30 11:04:44;;;;;;;;;;;;;;;17.96;29.09;95766.72;10433915;28;1954;-54
2023/01/30 11:09:45;;;;;;;;;;;;;;;17.93;29.05;95746.22;10422172;28;2100;-55
2023/01/30 11:14:57;;;;;;;;;;;;;;;17.89;28.95;95729.44;10431557;28;2026;-55
2023/01/30 11:20:00;;;;;;;;;;;;;;;17.86;28.82;95715.03;10408708;28;2223;-55
2023/01/30 11:25:01;;;;;;;;;;;;;;;17.83;28.76;95720.78;10461639;28;2035;-55
2023/01/30 11:30:05;;;;;;;;;;;;;;;17.81;28.80;95691.41;10478125;28;1961;-53
2023/01/30 11:35:05;;;;;;;;;;;;;;;17.79;28.76;95695.31;10455432;28;2051;-54
2023/01/30 11:40:06;;;;;;;;;;;;;;;17.75;28.69;95679.31;10472321;28;1911;-53
2023/01/30 11:45:09;;;;;;;;;;;;;;;17.74;28.81;95674.34;10473570;28;1980;-54
2023/01/30 11:50:10;;;;;;;;;;;;;;;17.73;28.68;95668.31;10466189;28;1988;-52
2023/01/30 11:55:13;;;;;;;;;;;;;;;17.73;28.70;95657.03;10458647;28;1952;-52
2023/01/30 12:00:17;;;;;;;;;;;;;;;17.79;28.76;95648.13;10472826;28;1982;-53
2023/01/30 12:05:31;;;;;;;;;;;;;;;17.82;28.85;95648.41;10469301;28;2052;-54
2023/01/30 12:10:32;;;;;;;;;;;;;;;17.85;28.82;95653.13;10476432;28;1965;-54
2023/01/30 12:15:32;;;;;;;;;;;;;;;17.95;28.76;95647.13;10478020;28;1959;-51
2023/01/30 12:20:48;;;;;;;;;;;;;;;18.02;28.93;95639.00;10460992;28;2081;-49
2023/01/30 12:26:07;;;;;;;;;;;;;;;18.11;28.69;95621.72;10469398;28;2033;-54
2023/01/30 12:31:09;;;;;;;;;;;;;;;18.19;28.54;95618.56;10465967;28;1913;-53
2023/01/30 12:36:10;;;;;;;;;;;;;;;18.23;28.65;95617.00;10472897;28;1965;-54
2023/01/30 12:41:20;;;;;;;;;;;;;;;18.28;28.57;95617.78;10500752;28;1949;-50
2023/01/30 12:46:32;;;;;;;;;;;;;;;18.35;28.40;95596.53;10466663;28;2168;-51
2023/01/30 12:51:36;;;;;;;;;;;;;;;18.38;28.26;95591.53;10466416;28;1902;-52
2023/01/30 12:56:45;;;;;;;;;;;;;;;18.43;28.32;95590.75;10485689;28;1891;-52
2023/01/30 13:01:48;;;;;;;;;;;;;;;18.48;28.16;95606.53;10462163;28;2038;-51
2023/01/30 13:06:51;;;;;;;;;;;;;;;18.52;28.22;95612.84;10468770;28;2099;-54
2023/01/30 13:11:55;;;;;;;;;;;;;;;18.57;28.02;95620.69;10467949;28;1985;-51
2023/01/30 13:16:59;;;;;;;;;;;;;;;18.58;28.12;95617.03;10472031;28;1895;-53
2023/01/30 13:22:06;;;;;;;;;;;;;;;18.62;27.83;95623.34;10454784;28;2144;-51
2023/01/30 13:27:08;;;;;;;;;;;;;;;18.64;27.80;95639.59;10403875;28;2104;-54
2023/01/30 13:32:13;;;;;;;;;;;;;;;18.65;27.93;95636.72;10417346;28;1939;-55
2023/01/30 13:37:15;;;;;;;;;;;;;;;18.68;28.06;95638.03;10393828;28;1958;-52
2023/01/30 13:42:28;;;;;;;;;;;;;;;18.72;27.80;95659.28;10412400;28;1963;-52
2023/01/30 13:47:46;;;;;;;;;;;;;;;18.69;27.98;95661.38;10423006;28;1977;-55
2023/01/30 13:52:52;;;;;;;;;;;;;;;18.72;27.92;95649.59;10420139;28;2037;-47
2023/01/30 13:57:55;;;;;;;;;;;;;;;18.71;27.90;95648.03;10419114;28;2168;-49
2023/01/30 14:03:04;;;;;;;;;;;;;;;18.74;27.83;95662.44;10407951;28;1931;-51
2023/01/30 14:08:09;;;;;;;;;;;;;;;18.73;27.74;95659.03;10418769;28;1976;-52
2023/01/30 14:13:11;;;;;;;;;;;;;;;18.74;27.76;95660.59;10417378;28;2178;-50
2023/01/30 14:18:20;;;;;;;;;;;;;;;18.79;27.66;95676.38;10412144;28;1906;-55
2023/01/30 14:23:20;;;;;;;;;;;;;;;18.81;28.22;95694.47;10436477;28;2065;-54
2023/01/30 14:28:21;;;;;;;;;;;;;;;18.85;28.08;95685.03;10431377;28;2216;-52
2023/01/30 14:33:21;;;;;;;;;;;;;;;18.86;27.81;95708.38;10441684;28;1946;-54
2023/01/30 14:38:22;;;;;;;;;;;;;;;18.86;28.09;95711.00;10432729;28;1942;-53
2023/01/30 14:43:40;;;;;;;;;;;;;;;18.87;27.95;95725.75;10436650;28;1958;-54
2023/01/30 14:48:53;;;;;;;;;;;;;;;18.91;27.76;95747.00;10433685;28;1903;-54
2023/01/30 14:53:57;;;;;;;;;;;;;;;18.90;28.29;95735.69;10445284;28;1946;-55
2023/01/30 14:59:01;;;;;;;;;;;;;;;18.91;28.27;95742.53;10413052;28;1911;-55
2023/01/30 15:04:01;;;;;;;;;;;;;;;18.95;28.05;95751.47;10436365;28;1982;-53
2023/01/30 15:09:02;;;;;;;;;;;;;;;18.96;27.96;95766.16;10450581;28;2095;-53
2023/01/30 15:14:13;;;;;;;;;;;;;;;18.97;28.18;95782.72;10409808;28;1939;-53
2023/01/30 15:19:22;;;;;;;;;;;;;;;18.99;28.01;95791.94;10415111;28;2065;-53
2023/01/30 15:24:41;;;;;;;;;;;;;;;18.98;28.45;95798.22;10434690;28;2116;-55
2023/01/30 15:29:47;;;;;;;;;;;;;;;19.03;28.33;95802.69;10430558;28;2291;-54
2023/01/30 15:34:55;;;;;;;;;;;;;;;19.04;28.13;95799.03;10408773;28;1896;-52
2023/01/30 15:40:14;;;;;;;;;;;;;;;19.03;28.06;95814.00;10421516;28;2129;-55
2023/01/30 15:45:23;;;;;;;;;;;;;;;19.01;28.17;95818.72;10428153;28;2044;-55
2023/01/30 15:50:23;;;;;;;;;;;;;;;19.05;27.99;95826.88;10431039;28;2025;-56
2023/01/30 15:55:31;;;;;;;;;;;;;;;19.05;28.13;95835.53;10422758;28;2106;-52
2023/01/30 16:00:32;;;;;;;;;;;;;;;19.08;27.66;95852.63;10429597;28;1954;-54
2023/01/30 16:05:32;;;;;;;;;;;;;;;19.10;27.81;95861.03;10416971;28;2024;-58
2023/01/30 16:10:33;;;;;;;;;;;;;;;19.11;27.79;95883.63;10433899;28;2030;-53
2023/01/30 16:15:39;;;;;;;;;;;;;;;19.09;27.88;95878.63;10434588;28;1959;-54
2023/01/30 16:20:43;;;;;;;;;;;;;;;19.11;27.63;95902.81;10423723;28;1962;-55
2023/01/30 16:25:44;;;;;;;;;;;;;;;19.11;27.90;95921.19;10398834;28;2026;-54
2023/01/30 16:30:44;;;;;;;;;;;;;;;19.13;27.58;95923.56;10428057;28;2009;-55
2023/01/30 16:35:45;;;;;;;;;;;;;;;19.16;27.38;95907.28;10419968;28;1922;-55
2023/01/30 16:40:45;;;;;;;;;;;;;;;19.16;27.33;95917.81;10426604;28;1973;-54
2023/01/30 16:45:51;;;;;;;;;;;;;;;19.15;27.41;95924.88;10430049;28;2045;-53
2023/01/30 16:50:58;;;;;;;;;;;;;;;19.16;27.43;95918.59;10425691;28;1990;-56
2023/01/30 16:56:02;;;;;;;;;;;;;;;19.16;27.47;95921.22;10428971;28;2104;-56
2023/01/30 17:01:03;;;;;;;;;;;;;;;19.17;27.46;95928.03;10437000;28;1939;-55
2023/01/30 17:06:11;;;;;;;;;;;;;;;19.19;27.72;95936.47;10423966;28;1989;-55
2023/01/30 17:11:27;;;;;;;;;;;;;;;19.19;27.97;95952.22;10412011;28;1990;-55
2023/01/30 17:16:30;;;;;;;;;;;;;;;19.25;28.06;95964.31;10435987;28;1978;-54
2023/01/30 17:21:30;;;;;;;;;;;;;;;19.27;28.03;95978.00;10429505;28;1949;-53
2023/01/30 17:26:31;;;;;;;;;;;;;;;19.30;28.11;95981.94;10411685;28;2026;-54
2023/01/30 17:31:31;;;;;;;;;;;;;;;19.30;27.98;95993.25;10433227;28;1958;-54
2023/01/30 17:36:32;;;;;;;;;;;;;;;19.30;27.99;95993.25;10428581;28;1963;-54
2023/01/30 17:41:35;;;;;;;;;;;;;;;19.31;28.16;95988.78;10423407;28;1408;-52
2023/01/30 17:46:36;;;;;;;;;;;;;;;19.32;28.13;95983.28;10402026;28;2484;-54
2023/01/30 17:51:36;;;;;;;;;;;;;;;19.36;28.18;95996.72;10435246;28;1919;-53
2023/01/30 17:56:38;;;;;;;;;;;;;;;19.35;28.03;95988.03;10402343;28;2037;-52
2023/01/30 18:01:39;;;;;;;;;;;;;;;19.40;28.42;95992.50;10404194;28;2132;-54
2023/01/30 18:06:40;;;;;;;;;;;;;;;19.43;28.61;96005.91;10414623;28;1943;-54
2023/01/30 18:11:40;;;;;;;;;;;;;;;19.45;28.83;96021.47;10411987;28;2061;-51
2023/01/30 18:16:40;;;;;;;;;;;;;;;19.47;29.00;96016.72;10418749;28;2090;-53
2023/01/30 18:21:44;;;;;;;;;;;;;;;19.49;28.84;96030.41;10412341;28;1970;-55
2023/01/30 18:26:45;;;;;;;;;;;;;;;19.52;28.54;96026.44;10434110;28;1974;-54
2023/01/30 18:31:45;;;;;;;;;;;;;;;19.43;28.56;96040.09;10425169;28;1989;-53
2023/01/30 18:36:45;;;;;;;;;;;;;;;19.40;28.28;96056.41;10427847;28;1965;-55
2023/01/30 18:41:45;;;;;;;;;;;;;;;19.47;28.87;96064.06;10410798;28;2018;-47
2023/01/30 18:46:47;;;;;;;;;;;;;;;19.39;28.88;96062.69;10429246;28;2193;-52
2023/01/30 18:51:48;;;;;;;;;;;;;;;19.31;28.97;96084.19;10422101;28;1982;-52
2023/01/30 18:56:48;;;;;;;;;;;;;;;19.27;28.95;96077.06;10429407;28;1930;-53
2023/01/30 19:01:48;;;;;;;;;;;;;;;19.25;28.83;96079.16;10410500;28;2021;-51
2023/01/30 19:06:48;;;;;;;;;;;;;;;19.24;28.93;96082.84;10427734;28;2018;-52
2023/01/30 19:17:08;;;;;;;;;;;;;;;19.21;28.69;96097.28;10435921;28;2098;-51
2023/01/30 19:22:08;;;;;;;;;;;;;;;19.22;28.67;96098.88;10447908;28;2104;-54
2023/01/30 19:27:12;;;;;;;;;;;;;;;19.21;28.59;96099.13;10474561;28;2005;-53
2023/01/30 19:32:12;;;;;;;;;;;;;;;19.24;28.82;96101.25;10462611;28;1961;-54
2023/01/30 19:37:13;;;;;;;;;;;;;;;19.35;30.66;96116.06;10467576;28;2040;-51
2023/01/30 19:42:15;;;;;;;;;;;;;;;19.43;30.85;96129.47;10466140;28;2172;-47
2023/01/30 19:47:15;;;;;;;;;;;;;;;19.46;31.19;96139.50;10468785;28;1961;-51
2023/01/30 19:52:15;;;;;;;;;;;;;;;19.45;31.80;96140.53;10467814;28;2001;-48
2023/01/30 19:57:15;;;;;;;;;;;;;;;19.49;31.49;96143.47;10471030;28;1974;-48
2023/01/30 20:02:16;;;;;;;;;;;;;;;19.48;31.82;96131.34;10475856;28;1939;-48
2023/01/30 20:07:16;;;;;;;;;;;;;;;19.48;31.55;96137.41;10475507;28;2037;-47
2023/01/30 20:12:16;;;;;;;;;;;;;;;19.48;31.55;96137.41;10471440;28;2124;-51
2023/01/30 20:17:17;;;;;;;;;;;;;;;19.42;31.72;96127.13;10471701;28;1962;-53
2023/01/30 20:22:17;;;;;;;;;;;;;;;19.40;31.53;96119.50;10453706;28;1978;-54
2023/01/30 20:27:17;;;;;;;;;;;;;;;19.38;31.85;96128.69;10417848;28;2308;-54
2023/01/30 20:32:17;;;;;;;;;;;;;;;19.37;31.41;96130.50;10412214;28;1938;-54
2023/01/30 20:37:18;;;;;;;;;;;;;;;19.33;32.01;96129.44;10420477;28;1923;-55
2023/01/30 20:42:18;;;;;;;;;;;;;;;19.34;31.72;96135.50;10419248;28;1981;-53
2023/01/30 20:47:18;;;;;;;;;;;;;;;19.31;31.24;96118.34;10415822;28;2096;-54
2023/01/30 20:52:19;;;;;;;;;;;;;;;19.28;31.92;96125.97;10437057;28;1905;-52
2023/01/30 20:57:19;;;;;;;;;;;;;;;19.24;31.61;96130.16;10430984;28;1967;-54
2023/01/30 21:02:19;;;;;;;;;;;;;;;19.24;31.54;96140.69;10428870;28;1978;-52
2023/01/30 21:07:20;;;;;;;;;;;;;;;19.18;31.33;96137.25;10423854;28;1962;-54
2023/01/30 21:12:22;;;;;;;;;;;;;;;19.13;30.85;96124.06;10425040;28;1955;-54
2023/01/30 21:17:22;;;;;;;;;;;;;;;19.06;30.54;96128.75;10429668;28;1994;-53
2023/01/30 21:22:23;;;;;;;;;;;;;;;19.00;30.92;96140.25;10426039;28;2141;-53
2023/01/30 21:27:23;;;;;;;;;;;;;;;18.97;30.64;96134.75;10426681;28;2427;-54
2023/01/30 21:32:23;;;;;;;;;;;;;;;18.92;31.09;96155.75;10433105;28;1958;-53
2023/01/30 21:48:01;;;;;;;;;;;;;;;18.79;30.88;96159.59;10430950;28;1982;-53
2023/01/30 21:53:01;;;;;;;;;;;;;;;18.74;30.66;96174.50;10427285;28;2059;-51
2023/01/30 21:58:02;;;;;;;;;;;;;;;18.67;30.71;96172.06;10431494;28;1954;-48
2023/01/30 22:03:02;;;;;;;;;;;;;;;18.69;30.69;96175.28;10426068;28;2117;-53
2023/01/30 22:08:03;;;;;;;;;;;;;;;18.61;30.96;96196.72;10422912;28;2001;-54
2023/01/30 22:13:04;;;;;;;;;;;;;;;18.58;30.79;96184.09;10430142;28;1963;-53
2023/01/30 22:18:04;;;;;;;;;;;;;;;18.54;30.73;96194.31;10422640;28;1961;-55
2023/01/30 22:23:04;;;;;;;;;;;;;;;18.56;30.61;96194.06;10410032;28;1950;-53
2023/01/30 22:28:04;;;;;;;;;;;;;;;18.51;30.46;96194.00;10415736;28;1990;-55
2023/01/30 22:33:05;;;;;;;;;;;;;;;18.48;30.62;96202.38;10415702;28;2015;-55
2023/01/30 22:38:05;;;;;;;;;;;;;;;18.44;30.65;96207.31;10418158;28;1974;-54
2023/01/30 22:43:05;;;;;;;;;;;;;;;18.39;30.69;96214.34;10425138;28;2077;-54
2023/01/30 22:48:05;;;;;;;;;;;;;;;18.38;30.58;96202.28;10423303;28;1972;-53
2023/01/30 22:53:06;;;;;;;;;;;;;;;18.34;30.49;96204.56;10423997;28;1926;-54
2023/01/30 22:58:06;;;;;;;;;;;;;;;18.30;30.56;96186.97;10419590;28;2032;-55
2023/01/30 23:03:06;;;;;;;;;;;;;;;18.28;30.38;96197.69;10413927;28;2029;-55
2023/01/30 23:08:06;;;;;;;;;;;;;;;18.25;30.27;96203.47;10423530;28;2009;-53
2023/01/30 23:13:07;;;;;;;;;;;;;;;18.21;30.39;96206.81;10425843;28;1943;-55
2023/01/30 23:23:29;;;;;;;;;;;;;;;18.14;30.42;96214.88;10424731;28;2031;-53
2023/01/30 23:28:29;;;;;;;;;;;;;;;18.13;30.27;96228.25;10438046;28;2115;-53
2023/01/30 23:33:30;;;;;;;;;;;;;;;18.10;30.17;96215.59;10416705;28;1973;-54
2023/01/30 23:38:30;;;;;;;;;;;;;;;18.07;30.40;96224.00;10436365;28;1970;-52
2023/01/30 23:43:30;;;;;;;;;;;;;;;18.04;30.21;96235.75;10422547;28;1985;-52
2023/01/30 23:48:31;;;;;;;;;;;;;;;18.03;30.33;96249.13;10419511;28;2027;-52
2023/01/30 23:53:31;;;;;;;;;;;;;;;17.99;30.51;96245.41;10425973;28;1949;-50
2023/01/30 23:58:31;;;;;;;;;;;;;;;17.97;30.30;96235.13;10430819;28;2002;-50
